Fort Ripley, Minnesota
Current Conditions -  °F | °C
As of 8:57 AM on Thursday 23 Oct 2014 (Local Time) from KLXL Reporting Station
Haze Haze  
Wind Chill: 50°   Ceiling: 300
Heat Index: 50°   Visibility: 5mi
Dew Point: 48°   Wind: 0mph
Humidity: 94%   Direction: NA
Pressure: 29.97"   Gusts: NA
Location:  46.17°N, 94.36°W
Report Text: KLXL 231357Z AUTO 00000KT 5SM BR OVC003 10/09 A2997 RMK AO2
Loading
Personal Weather Stations






























Interactive Weather Map
Tropical Storm Tracking
New forecast layout! Learn more

10-Day Weather Forecast

Advertisements
Track Severe Weather on mobile